createdAt,value
2023-08-10T00:00:15.878Z,12.20
2023-08-10T00:02:44.094Z,12.13
2023-08-10T00:05:12.807Z,12.10
2023-08-10T00:07:41.909Z,12.12
2023-08-10T00:10:10.066Z,12.07
2023-08-10T00:12:38.741Z,12.00
2023-08-10T00:15:06.909Z,12.00
2023-08-10T00:17:34.832Z,11.91
2023-08-10T00:20:06.342Z,11.84
2023-08-10T00:22:34.277Z,11.82
2023-08-10T00:25:03.865Z,11.78
2023-08-10T00:27:31.522Z,11.70
2023-08-10T00:30:01.658Z,11.67
2023-08-10T00:32:29.720Z,11.71
2023-08-10T00:34:57.490Z,11.68
2023-08-10T00:37:25.655Z,11.68
2023-08-10T00:39:53.274Z,11.72
2023-08-10T00:42:22.350Z,11.66
2023-08-10T00:44:50.581Z,11.64
2023-08-10T00:47:18.260Z,11.53
2023-08-10T00:49:46.120Z,11.55
2023-08-10T00:52:13.953Z,11.45
2023-08-10T00:54:41.865Z,11.45
2023-08-10T00:57:09.566Z,11.43
2023-08-10T00:59:40.149Z,11.34
2023-08-10T01:02:08.906Z,11.30
2023-08-10T01:04:36.861Z,11.45
2023-08-10T01:07:10.833Z,11.44
2023-08-10T01:09:44.269Z,11.57
2023-08-10T01:12:22.630Z,11.59
2023-08-10T01:14:59.495Z,11.55
2023-08-10T01:17:31.551Z,11.59
2023-08-10T01:20:04.758Z,11.57
2023-08-10T01:22:47.112Z,11.59
2023-08-10T01:25:17.720Z,11.64
2023-08-10T01:27:47.152Z,11.67
2023-08-10T01:30:15.816Z,11.63
2023-08-10T01:32:43.981Z,11.72
2023-08-10T01:35:12.380Z,11.69
2023-08-10T01:37:40.781Z,11.72
2023-08-10T01:40:10.594Z,11.56
2023-08-10T01:42:39.625Z,11.58
2023-08-10T01:45:09.083Z,11.58
2023-08-10T01:47:41.466Z,11.56
2023-08-10T01:50:10.931Z,11.56
2023-08-10T01:52:43.554Z,11.64
2023-08-10T01:55:12.184Z,11.68
2023-08-10T01:57:41.543Z,11.68
2023-08-10T02:00:12.158Z,11.80
2023-08-10T02:02:48.178Z,11.84
2023-08-10T02:05:16.109Z,11.93
2023-08-10T02:07:49.663Z,11.95
2023-08-10T02:10:17.945Z,11.92
2023-08-10T02:12:46.969Z,11.91
2023-08-10T02:15:14.737Z,11.90
2023-08-10T02:17:42.813Z,12.02
2023-08-10T02:20:13.969Z,12.12
2023-08-10T02:22:44.039Z,12.20
2023-08-10T02:25:11.981Z,12.13
2023-08-10T02:27:40.897Z,12.13
2023-08-10T02:30:11.397Z,12.08
2023-08-10T02:32:39.876Z,12.11
2023-08-10T02:35:10.150Z,12.18
2023-08-10T02:37:38.717Z,12.23
2023-08-10T02:40:07.896Z,12.25
2023-08-10T02:42:35.876Z,12.26
2023-08-10T02:45:04.498Z,12.33
2023-08-10T02:47:35.047Z,12.25
2023-08-10T02:50:03.537Z,12.18
2023-08-10T02:52:31.182Z,12.12
2023-08-10T02:54:59.421Z,12.05
2023-08-10T02:57:27.137Z,11.96
2023-08-10T02:59:54.860Z,11.88
2023-08-10T03:02:22.989Z,11.90
2023-08-10T03:04:52.199Z,11.91
2023-08-10T03:07:20.181Z,12.00
2023-08-10T03:09:48.534Z,12.04
2023-08-10T03:12:22.347Z,12.01
2023-08-10T03:14:50.594Z,11.90
2023-08-10T03:17:19.161Z,11.82
2023-08-10T03:19:47.202Z,11.81
2023-08-10T03:22:16.724Z,11.76
2023-08-10T03:24:44.437Z,11.74
2023-08-10T03:27:12.099Z,11.75
2023-08-10T03:29:39.900Z,11.68
2023-08-10T03:32:08.620Z,11.66
2023-08-10T03:34:36.628Z,11.77
2023-08-10T03:37:05.148Z,11.62
2023-08-10T03:39:35.237Z,11.61
2023-08-10T03:42:03.615Z,11.59
2023-08-10T03:44:31.656Z,11.57
2023-08-10T03:46:59.572Z,11.53
2023-08-10T03:49:27.283Z,11.48
2023-08-10T03:51:56.045Z,11.50
2023-08-10T03:54:23.819Z,11.46
2023-08-10T03:56:53.098Z,11.39
2023-08-10T03:59:21.635Z,11.34
2023-08-10T04:01:52.948Z,11.32
2023-08-10T04:04:20.598Z,11.32
2023-08-10T04:06:48.348Z,11.43
2023-08-10T04:09:15.965Z,11.44
2023-08-10T04:11:43.656Z,11.50
2023-08-10T04:14:13.491Z,11.54
2023-08-10T04:16:41.250Z,11.56
2023-08-10T04:19:09.403Z,11.61
2023-08-10T04:21:37.114Z,11.63
2023-08-10T04:24:05.868Z,11.61
2023-08-10T04:26:33.594Z,11.63
2023-08-10T04:29:01.716Z,11.74
2023-08-10T04:31:30.723Z,11.78
2023-08-10T04:33:58.350Z,11.84
2023-08-10T04:36:26.246Z,11.91
2023-08-10T04:38:54.996Z,12.08
2023-08-10T04:41:22.825Z,12.15
2023-08-10T04:43:50.791Z,12.24
2023-08-10T04:46:18.554Z,12.27
2023-08-10T04:48:47.658Z,12.28
2023-08-10T04:51:15.333Z,12.26
2023-08-10T04:53:43.021Z,12.26
2023-08-10T04:56:10.701Z,12.37
2023-08-10T04:58:38.647Z,12.48
2023-08-10T05:01:06.392Z,12.51
2023-08-10T05:03:34.740Z,12.63
2023-08-10T05:06:04.310Z,12.76
2023-08-10T05:08:32.816Z,12.91
2023-08-10T05:11:02.261Z,13.10
2023-08-10T05:13:30.053Z,13.24
2023-08-10T05:15:58.094Z,13.26
2023-08-10T05:18:25.902Z,13.37
2023-08-10T05:20:53.566Z,13.47
2023-08-10T05:23:22.563Z,13.47
2023-08-10T05:25:50.211Z,13.47
2023-08-10T05:28:18.391Z,13.46
2023-08-10T05:30:46.101Z,13.59
2023-08-10T05:33:13.992Z,13.59
2023-08-10T05:35:42.076Z,13.75
2023-08-10T05:38:10.358Z,13.82
2023-08-10T05:40:39.722Z,13.92
2023-08-10T05:43:07.651Z,13.95
2023-08-10T05:45:35.395Z,14.08
2023-08-10T05:48:03.175Z,14.08
2023-08-10T05:50:30.951Z,14.98
2023-08-10T05:52:58.609Z,15.05
2023-08-10T05:55:26.546Z,15.14
2023-08-10T05:57:55.535Z,15.45
2023-08-10T06:00:23.512Z,15.55
2023-08-10T06:02:52.415Z,15.30
2023-08-10T06:05:21.258Z,15.55
2023-08-10T06:07:49.197Z,15.42
2023-08-10T06:10:17.710Z,15.38
2023-08-10T06:12:45.485Z,15.43
2023-08-10T06:15:14.635Z,15.36
2023-08-10T06:17:43.246Z,15.50
2023-08-10T06:20:17.870Z,15.73
2023-08-10T06:22:46.166Z,15.89
2023-08-10T06:25:14.939Z,15.94
2023-08-10T06:27:43.290Z,16.10
2023-08-10T06:30:11.951Z,16.02
2023-08-10T06:32:41.180Z,15.93
2023-08-10T06:35:11.148Z,15.96
2023-08-10T06:37:39.244Z,16.15
2023-08-10T06:40:10.089Z,16.19
2023-08-10T06:42:38.700Z,16.39
2023-08-10T06:45:14.371Z,16.50
2023-08-10T06:47:44.657Z,16.27
2023-08-10T06:50:13.537Z,16.68
2023-08-10T06:52:42.742Z,16.92
2023-08-10T06:55:12.822Z,16.62
2023-08-10T06:57:42.101Z,16.60
2023-08-10T07:02:46.917Z,16.34
2023-08-10T07:05:15.106Z,16.59
2023-08-10T07:07:42.817Z,16.50
2023-08-10T07:10:10.908Z,16.48
2023-08-10T07:12:38.852Z,16.56
2023-08-10T07:15:08.493Z,16.49
2023-08-10T07:17:36.537Z,16.68
2023-08-10T07:20:07.430Z,16.63
2023-08-10T07:22:39.680Z,16.82
2023-08-10T07:25:08.682Z,17.10
2023-08-10T07:27:37.244Z,17.59
2023-08-10T07:30:05.834Z,17.71
2023-08-10T07:32:33.589Z,18.14
2023-08-10T07:35:01.286Z,18.66
2023-08-10T07:37:30.710Z,18.86
2023-08-10T07:39:58.454Z,19.49
2023-08-10T07:42:26.356Z,19.89
2023-08-10T07:44:54.173Z,20.32
2023-08-10T07:47:22.286Z,20.21
2023-08-10T07:49:50.044Z,19.86
2023-08-10T07:52:17.748Z,19.95
2023-08-10T07:54:47.041Z,20.50
2023-08-10T07:57:14.735Z,20.56
2023-08-10T07:59:43.479Z,20.84
2023-08-10T08:02:11.305Z,21.32
2023-08-10T08:04:39.176Z,20.83
2023-08-10T08:07:06.986Z,20.87
2023-08-10T08:09:35.033Z,20.66
2023-08-10T08:12:04.713Z,20.68
2023-08-10T08:14:32.810Z,20.64
2023-08-10T08:17:00.454Z,20.98
2023-08-10T08:19:28.270Z,20.90
2023-08-10T08:21:56.003Z,21.14
2023-08-10T08:24:23.637Z,21.23
2023-08-10T08:26:51.652Z,20.99
2023-08-10T08:29:20.663Z,20.99
2023-08-10T08:31:48.470Z,21.00
2023-08-10T08:34:16.518Z,21.21
2023-08-10T08:36:45.868Z,20.72
2023-08-10T08:39:13.945Z,20.62
2023-08-10T08:41:41.827Z,20.93
2023-08-10T08:44:10.688Z,20.96
2023-08-10T08:46:41.916Z,21.46
2023-08-10T08:49:09.984Z,21.38
2023-08-10T08:51:38.275Z,21.84
2023-08-10T08:54:06.686Z,22.04
2023-08-10T08:56:34.384Z,21.99
2023-08-10T08:59:02.101Z,21.69
2023-08-10T09:01:31.362Z,21.92
2023-08-10T09:04:01.439Z,21.90
2023-08-10T09:06:29.292Z,21.69
2023-08-10T09:08:57.035Z,21.89
2023-08-10T09:11:24.976Z,21.94
2023-08-10T09:14:09.342Z,21.88
2023-08-10T09:16:39.327Z,21.75
2023-08-10T09:19:12.712Z,21.56
2023-08-10T09:21:40.971Z,21.88
2023-08-10T09:24:11.615Z,21.83
2023-08-10T09:26:41.028Z,21.88
2023-08-10T09:29:09.448Z,21.64
2023-08-10T09:31:37.285Z,21.61
2023-08-10T09:34:12.164Z,21.76
2023-08-10T09:36:41.144Z,21.83
2023-08-10T09:39:18.109Z,22.00
2023-08-10T09:41:45.756Z,22.05
2023-08-10T09:44:14.052Z,22.19
2023-08-10T09:46:41.947Z,21.99
2023-08-10T09:49:10.239Z,21.93
2023-08-10T09:51:41.871Z,21.89
2023-08-10T09:54:10.187Z,22.19
2023-08-10T09:56:38.165Z,22.18
2023-08-10T09:59:06.197Z,22.24
2023-08-10T10:01:34.420Z,22.39
2023-08-10T10:04:02.648Z,22.60
2023-08-10T10:06:31.324Z,22.47
2023-08-10T10:09:04.706Z,22.82
2023-08-10T10:11:34.055Z,22.86
2023-08-10T10:14:03.167Z,22.95
2023-08-10T10:16:33.415Z,23.29
2023-08-10T10:19:02.361Z,23.17
2023-08-10T10:21:30.636Z,23.05
2023-08-10T10:24:04.866Z,22.97
2023-08-10T10:26:32.603Z,23.11
2023-08-10T10:29:11.389Z,23.11
2023-08-10T10:31:39.302Z,23.15
2023-08-10T10:34:07.336Z,23.17
2023-08-10T10:36:34.983Z,23.12
2023-08-10T10:39:09.846Z,23.16
2023-08-10T10:41:38.385Z,23.31
2023-08-10T10:44:10.642Z,23.27
2023-08-10T10:46:40.013Z,23.37
2023-08-10T10:49:10.391Z,23.47
2023-08-10T10:51:45.769Z,23.36
2023-08-10T10:54:15.445Z,23.33
2023-08-10T10:56:43.694Z,23.51
2023-08-10T10:59:11.320Z,23.68
2023-08-10T11:01:39.292Z,23.76
2023-08-10T11:04:07.954Z,23.77
2023-08-10T11:06:39.190Z,23.89
2023-08-10T11:09:09.059Z,24.02
2023-08-10T11:11:38.800Z,24.23
2023-08-10T11:14:07.009Z,24.47
2023-08-10T11:16:42.515Z,24.22
2023-08-10T11:19:12.788Z,24.27
2023-08-10T11:21:43.547Z,24.02
2023-08-10T11:24:11.259Z,24.09
2023-08-10T11:26:40.681Z,24.06
2023-08-10T11:29:08.480Z,24.19
2023-08-10T11:31:43.832Z,23.85
2023-08-10T11:34:23.616Z,24.21
2023-08-10T11:36:52.906Z,24.09
2023-08-10T11:39:21.813Z,24.05
2023-08-10T11:41:51.234Z,24.01
2023-08-10T11:44:27.177Z,24.17
2023-08-10T11:46:58.830Z,24.42
2023-08-10T11:49:31.283Z,24.74
2023-08-10T11:52:01.338Z,24.44
2023-08-10T11:54:30.871Z,24.43
2023-08-10T11:57:00.645Z,24.61
2023-08-10T11:59:36.352Z,24.66
2023-08-10T12:02:06.208Z,24.54
2023-08-10T12:04:37.448Z,24.59
2023-08-10T12:07:06.340Z,24.88
2023-08-10T12:09:34.434Z,25.20
2023-08-10T12:12:05.114Z,24.96
2023-08-10T12:14:33.269Z,24.93
2023-08-10T12:17:01.152Z,25.09
2023-08-10T12:19:30.238Z,25.14
2023-08-10T12:22:06.698Z,25.30
2023-08-10T12:24:34.723Z,24.98
2023-08-10T12:27:04.370Z,25.24
2023-08-10T12:29:32.680Z,25.33
2023-08-10T12:32:01.816Z,25.46
2023-08-10T12:34:29.512Z,25.22
2023-08-10T12:36:57.765Z,25.31
2023-08-10T12:39:27.806Z,25.22
2023-08-10T12:41:55.520Z,25.40
2023-08-10T12:44:24.701Z,25.26
2023-08-10T12:46:53.212Z,25.08
2023-08-10T12:49:21.163Z,24.89
2023-08-10T12:51:48.860Z,25.07
2023-08-10T12:54:16.735Z,25.31
2023-08-10T12:56:44.459Z,25.36
2023-08-10T12:59:12.240Z,25.36
2023-08-10T13:01:42.505Z,25.45
2023-08-10T13:04:10.251Z,25.94
2023-08-10T13:06:38.533Z,25.65
2023-08-10T13:09:06.478Z,25.61
2023-08-10T13:11:35.573Z,25.59
2023-08-10T13:14:03.361Z,25.57
2023-08-10T13:16:31.189Z,25.77
2023-08-10T13:19:00.760Z,25.81
2023-08-10T13:21:28.599Z,25.89
2023-08-10T13:23:56.535Z,26.10
2023-08-10T13:26:24.274Z,26.19
2023-08-10T13:28:52.169Z,26.19
2023-08-10T13:31:19.956Z,26.19
2023-08-10T13:33:47.786Z,26.18
2023-08-10T13:36:17.234Z,26.20
2023-08-10T13:38:44.991Z,26.17
2023-08-10T13:41:12.862Z,26.35
2023-08-10T13:43:41.192Z,26.54
2023-08-10T13:46:09.012Z,26.60
2023-08-10T13:48:37.328Z,26.12
2023-08-10T13:51:05.123Z,26.40
2023-08-10T13:53:34.445Z,26.33
2023-08-10T13:56:02.234Z,26.16
2023-08-10T13:58:29.985Z,26.34
2023-08-10T14:00:57.933Z,26.14
2023-08-10T14:03:25.655Z,26.41
2023-08-10T14:05:53.517Z,26.33
2023-08-10T14:08:21.340Z,26.20
2023-08-10T14:10:50.325Z,26.66
2023-08-10T14:13:18.799Z,26.52
2023-08-10T14:15:46.502Z,26.28
2023-08-10T14:18:14.177Z,26.31
2023-08-10T14:20:42.150Z,26.29
2023-08-10T14:23:10.541Z,26.43
2023-08-10T14:25:38.810Z,26.08
2023-08-10T14:28:08.137Z,26.41
2023-08-10T14:30:36.272Z,26.10
2023-08-10T14:33:04.308Z,26.20
2023-08-10T14:35:32.036Z,26.43
2023-08-10T14:38:02.127Z,26.31
2023-08-10T14:40:29.916Z,26.49
2023-08-10T14:42:58.226Z,26.48
2023-08-10T14:45:27.505Z,26.18
2023-08-10T14:48:00.947Z,26.17
2023-08-10T14:50:30.031Z,26.10
2023-08-10T14:52:57.702Z,26.34
2023-08-10T14:55:25.874Z,26.22
2023-08-10T14:57:53.576Z,26.24
2023-08-10T15:00:22.200Z,25.96
2023-08-10T15:02:51.515Z,26.12
2023-08-10T15:05:20.486Z,25.65
2023-08-10T15:07:48.289Z,26.08
2023-08-10T15:10:16.533Z,25.92
2023-08-10T15:12:44.186Z,26.12
2023-08-10T15:15:12.484Z,26.08
2023-08-10T15:17:40.749Z,25.95
2023-08-10T15:20:13.354Z,26.11
2023-08-10T15:22:41.398Z,26.00
2023-08-10T15:25:10.537Z,26.24
2023-08-10T15:27:40.653Z,26.29
2023-08-10T15:30:09.869Z,25.81
2023-08-10T15:32:37.851Z,25.82
2023-08-10T15:35:06.279Z,25.98
2023-08-10T15:37:35.637Z,25.95
2023-08-10T15:40:05.408Z,26.10
2023-08-10T15:42:33.117Z,25.99
2023-08-10T15:45:01.080Z,25.95
2023-08-10T15:47:28.772Z,25.68
2023-08-10T15:49:56.453Z,25.92
2023-08-10T15:52:24.570Z,25.69
2023-08-10T15:54:54.115Z,25.72
2023-08-10T15:57:22.065Z,25.87
2023-08-10T15:59:49.731Z,25.74
2023-08-10T16:02:20.674Z,25.94
2023-08-10T16:04:49.641Z,25.91
2023-08-10T16:07:17.352Z,25.93
2023-08-10T16:09:45.340Z,26.03
2023-08-10T16:12:14.357Z,26.04
2023-08-10T16:14:42.307Z,25.89
2023-08-10T16:17:09.944Z,25.96
2023-08-10T16:19:37.596Z,25.73
2023-08-10T16:22:05.831Z,25.65
2023-08-10T16:24:33.748Z,25.70
2023-08-10T16:27:02.249Z,25.94
2023-08-10T16:29:31.565Z,25.93
2023-08-10T16:32:00.223Z,25.81
2023-08-10T16:34:29.192Z,25.70
2023-08-10T16:36:56.856Z,25.56
2023-08-10T16:39:24.696Z,25.98
2023-08-10T16:41:52.368Z,25.97
2023-08-10T16:44:20.009Z,25.89
2023-08-10T16:46:49.322Z,26.36
2023-08-10T16:49:16.944Z,26.78
2023-08-10T16:51:44.669Z,27.46
2023-08-10T16:54:12.453Z,28.18
2023-08-10T16:56:40.168Z,28.07
2023-08-10T16:59:08.044Z,28.91
2023-08-10T17:01:35.868Z,28.97
2023-08-10T17:04:06.137Z,29.08
2023-08-10T17:06:33.863Z,28.62
2023-08-10T17:09:01.608Z,29.09
2023-08-10T17:11:29.388Z,28.81
2023-08-10T17:13:57.002Z,27.73
2023-08-10T17:16:26.258Z,25.77
2023-08-10T17:18:54.773Z,25.22
2023-08-10T17:21:23.851Z,24.28
2023-08-10T17:23:51.658Z,23.50
2023-08-10T17:26:19.530Z,22.92
2023-08-10T17:28:47.274Z,22.67
2023-08-10T17:31:15.591Z,22.30
2023-08-10T17:33:43.948Z,21.99
2023-08-10T17:36:11.711Z,21.71
2023-08-10T17:38:41.185Z,21.49
2023-08-10T17:41:09.218Z,21.35
2023-08-10T17:43:36.972Z,21.14
2023-08-10T17:46:04.872Z,20.86
2023-08-10T17:48:32.581Z,20.70
2023-08-10T17:51:00.385Z,20.52
2023-08-10T17:53:28.340Z,20.36
2023-08-10T17:55:57.553Z,20.08
2023-08-10T17:58:25.675Z,20.03
2023-08-10T18:00:53.401Z,19.89
2023-08-10T18:03:21.184Z,19.66
2023-08-10T18:05:48.876Z,19.53
2023-08-10T18:08:16.534Z,19.42
2023-08-10T18:10:44.568Z,19.30
2023-08-10T18:13:13.586Z,19.19
2023-08-10T18:15:41.259Z,19.00
2023-08-10T18:18:09.397Z,18.77
2023-08-10T18:20:37.134Z,18.69
2023-08-10T18:23:05.233Z,18.64
2023-08-10T18:25:32.931Z,18.47
2023-08-10T18:28:01.947Z,18.34
2023-08-10T18:30:30.961Z,18.16
2023-08-10T18:32:58.687Z,18.27
2023-08-10T18:35:26.549Z,18.02
2023-08-10T18:37:54.213Z,17.81
2023-08-10T18:40:21.923Z,17.70
2023-08-10T18:42:49.616Z,17.56
2023-08-10T18:45:17.413Z,17.57
2023-08-10T18:47:46.445Z,17.71
2023-08-10T18:50:14.337Z,17.39
2023-08-10T18:52:42.244Z,17.20
2023-08-10T18:55:10.941Z,17.04
2023-08-10T18:57:39.672Z,16.93
2023-08-10T19:00:09.199Z,16.78
2023-08-10T19:02:36.973Z,16.66
2023-08-10T19:05:07.021Z,16.84
2023-08-10T19:07:34.679Z,16.72
2023-08-10T19:10:02.410Z,16.75
2023-08-10T19:12:30.160Z,16.49
2023-08-10T19:14:57.792Z,16.36
2023-08-10T19:17:25.757Z,16.25
2023-08-10T19:19:53.433Z,16.26
2023-08-10T19:22:22.557Z,16.26
2023-08-10T19:24:50.744Z,16.30
2023-08-10T19:27:21.951Z,16.61
2023-08-10T19:29:49.621Z,16.46
2023-08-10T19:32:17.837Z,16.40
2023-08-10T19:34:45.591Z,16.38
2023-08-10T19:37:13.501Z,16.35
2023-08-10T19:39:42.582Z,16.38
2023-08-10T19:42:10.356Z,16.49
2023-08-10T19:44:38.480Z,16.65
2023-08-10T19:47:06.761Z,16.79
2023-08-10T19:49:34.911Z,16.83
2023-08-10T19:52:04.162Z,17.00
2023-08-10T19:54:32.460Z,17.01
2023-08-10T19:57:01.711Z,16.99
2023-08-10T19:59:29.300Z,16.94
2023-08-10T20:01:57.573Z,16.97
2023-08-10T20:04:25.300Z,16.96
2023-08-10T20:06:53.617Z,17.02
2023-08-10T20:09:22.070Z,17.00
2023-08-10T20:11:49.855Z,16.97
2023-08-10T20:14:19.334Z,17.21
2023-08-10T20:16:47.452Z,17.22
2023-08-10T20:19:15.191Z,17.40
2023-08-10T20:21:42.965Z,17.40
2023-08-10T20:24:10.696Z,17.34
2023-08-10T20:26:39.548Z,17.28
2023-08-10T20:29:07.506Z,17.28
2023-08-10T20:31:36.717Z,17.29
2023-08-10T20:34:04.682Z,17.22
2023-08-10T20:36:32.945Z,17.12
2023-08-10T20:39:00.721Z,17.05
2023-08-10T20:41:28.874Z,17.02
2023-08-10T20:43:57.253Z,17.00
2023-08-10T20:46:26.763Z,16.89
2023-08-10T20:48:56.238Z,16.79
2023-08-10T20:51:24.548Z,16.83
2023-08-10T20:53:53.551Z,16.84
2023-08-10T20:56:22.207Z,16.62
2023-08-10T20:58:52.206Z,16.71
2023-08-10T21:01:20.108Z,16.77
2023-08-10T21:03:48.371Z,16.80
2023-08-10T21:06:17.381Z,16.86
2023-08-10T21:08:47.465Z,16.75
2023-08-10T21:11:15.094Z,16.65
2023-08-10T21:13:42.868Z,16.48
2023-08-10T21:16:11.788Z,16.04
2023-08-10T21:18:39.572Z,16.34
2023-08-10T21:21:07.562Z,16.18
2023-08-10T21:23:37.025Z,16.19
2023-08-10T21:26:04.837Z,16.39
2023-08-10T21:28:32.578Z,16.38
2023-08-10T21:31:00.342Z,16.33
2023-08-10T21:33:28.077Z,16.19
2023-08-10T21:35:55.834Z,16.18
2023-08-10T21:38:23.470Z,16.07
2023-08-10T21:40:52.496Z,16.02
2023-08-10T21:43:20.389Z,15.84
2023-08-10T21:45:48.007Z,15.76
2023-08-10T21:48:15.886Z,15.73
2023-08-10T21:50:43.870Z,15.64
2023-08-10T21:53:11.544Z,15.64
2023-08-10T21:55:39.186Z,15.76
2023-08-10T21:58:08.251Z,15.82
2023-08-10T22:00:36.033Z,15.64
2023-08-10T22:03:04.063Z,15.53
2023-08-10T22:05:31.828Z,15.59
2023-08-10T22:08:00.146Z,15.64
2023-08-10T22:10:27.843Z,15.46
2023-08-10T22:12:55.701Z,15.37
2023-08-10T22:15:25.418Z,15.39
2023-08-10T22:17:53.076Z,15.48
2023-08-10T22:20:20.804Z,15.49
2023-08-10T22:22:58.289Z,15.48
2023-08-10T22:25:32.464Z,15.69
2023-08-10T22:28:01.660Z,15.86
2023-08-10T22:30:30.695Z,15.87
2023-08-10T22:32:59.358Z,16.08
2023-08-10T22:35:27.129Z,16.22
2023-08-10T22:37:54.825Z,16.47
2023-08-10T22:40:22.825Z,16.56
2023-08-10T22:42:50.535Z,16.57
2023-08-10T22:45:18.637Z,16.52
2023-08-10T22:47:47.672Z,16.44
2023-08-10T22:50:15.443Z,16.26
2023-08-10T22:52:43.349Z,16.03
2023-08-10T22:55:12.035Z,15.86
2023-08-10T22:57:40.345Z,15.79
2023-08-10T23:00:11.027Z,15.67
2023-08-10T23:02:38.892Z,15.57
2023-08-10T23:05:09.094Z,15.53
2023-08-10T23:07:37.619Z,15.52
2023-08-10T23:10:06.384Z,15.47
2023-08-10T23:12:34.113Z,15.57
2023-08-10T23:15:02.167Z,15.49
2023-08-10T23:17:30.371Z,15.43
2023-08-10T23:19:58.571Z,15.24
2023-08-10T23:22:27.981Z,15.14
2023-08-10T23:24:55.625Z,15.13
2023-08-10T23:27:23.578Z,15.15
2023-08-10T23:29:51.236Z,15.04
2023-08-10T23:32:19.151Z,14.97
2023-08-10T23:34:46.781Z,14.85
2023-08-10T23:37:15.052Z,14.98
2023-08-10T23:39:44.240Z,15.04
2023-08-10T23:42:12.153Z,15.00
2023-08-10T23:44:39.842Z,14.93
2023-08-10T23:47:16.303Z,14.87
2023-08-10T23:49:45.071Z,15.16
2023-08-10T23:52:13.012Z,15.58
2023-08-10T23:54:40.695Z,15.57
2023-08-10T23:57:10.341Z,15.71
2023-08-10T23:59:41.186Z,15.73
